createdAt,value
2018-09-10T00:02:20.955Z,15.68
2018-09-10T00:04:50.387Z,15.60
2018-09-10T00:07:19.805Z,15.52
2018-09-10T00:09:49.671Z,15.52
2018-09-10T00:12:19.099Z,15.49
2018-09-10T00:14:48.839Z,15.49
2018-09-10T00:17:18.305Z,15.48
2018-09-10T00:19:47.782Z,15.44
2018-09-10T00:22:17.216Z,15.44
2018-09-10T00:24:46.690Z,15.42
2018-09-10T00:27:16.159Z,15.42
2018-09-10T00:29:45.658Z,15.44
2018-09-10T00:32:15.174Z,15.40
2018-09-10T00:34:44.631Z,15.45
2018-09-10T00:37:14.111Z,15.43
2018-09-10T00:39:43.567Z,15.42
2018-09-10T00:42:13.174Z,15.41
2018-09-10T00:44:42.626Z,15.42
2018-09-10T00:47:12.113Z,15.47
2018-09-10T00:49:41.549Z,15.48
2018-09-10T00:52:11.112Z,15.52
2018-09-10T00:54:40.614Z,15.51
2018-09-10T00:57:10.090Z,15.54
2018-09-10T00:59:39.547Z,15.55
2018-09-10T01:02:09.074Z,15.59
2018-09-10T01:04:38.555Z,15.58
2018-09-10T01:07:08.122Z,15.53
2018-09-10T01:09:37.613Z,15.47
2018-09-10T01:12:07.179Z,15.51
2018-09-10T01:14:36.667Z,15.57
2018-09-10T01:17:06.483Z,15.62
2018-09-10T01:19:35.978Z,15.65
2018-09-10T01:22:05.479Z,15.68
2018-09-10T01:24:34.901Z,15.70
2018-09-10T01:27:04.843Z,15.69
2018-09-10T01:29:34.279Z,15.56
2018-09-10T01:32:03.761Z,15.46
2018-09-10T01:34:38.592Z,15.43
2018-09-10T01:37:08.050Z,15.37
2018-09-10T01:39:37.515Z,15.32
2018-09-10T01:42:07.368Z,15.28
2018-09-10T01:44:36.841Z,15.13
2018-09-10T01:47:06.562Z,15.15
2018-09-10T01:49:35.997Z,15.06
2018-09-10T01:52:05.460Z,15.05
2018-09-10T01:54:34.901Z,14.97
2018-09-10T01:57:04.338Z,14.87
2018-09-10T01:59:34.083Z,14.90
2018-09-10T02:02:03.560Z,14.88
2018-09-10T02:04:33.045Z,14.87
2018-09-10T02:07:02.574Z,14.87
2018-09-10T02:09:32.017Z,14.94
2018-09-10T02:12:01.499Z,15.06
2018-09-10T02:14:30.969Z,15.15
2018-09-10T02:17:00.486Z,15.21
2018-09-10T02:19:29.912Z,15.33
2018-09-10T02:21:59.448Z,15.44
2018-09-10T02:24:28.894Z,15.42
2018-09-10T02:26:58.438Z,15.46
2018-09-10T02:29:27.922Z,15.49
2018-09-10T02:31:57.373Z,15.56
2018-09-10T02:34:26.824Z,15.65
2018-09-10T02:36:56.335Z,15.65
2018-09-10T02:39:25.766Z,15.68
2018-09-10T02:41:55.572Z,15.66
2018-09-10T02:44:25.052Z,15.68
2018-09-10T02:46:54.528Z,15.69
2018-09-10T02:49:24.032Z,15.69
2018-09-10T02:51:53.515Z,15.68
2018-09-10T02:54:22.968Z,15.70
2018-09-10T02:56:52.409Z,15.68
2018-09-10T02:59:22.125Z,15.64
2018-09-10T03:01:51.573Z,15.65
2018-09-10T03:04:21.033Z,15.66
2018-09-10T03:06:50.859Z,15.66
2018-09-10T03:09:20.313Z,15.76
2018-09-10T03:11:49.840Z,15.73
2018-09-10T03:14:19.335Z,15.70
2018-09-10T03:16:48.800Z,15.71
2018-09-10T03:19:18.344Z,15.69
2018-09-10T03:21:47.882Z,15.69
2018-09-10T03:24:17.395Z,15.71
2018-09-10T03:26:46.824Z,15.72
2018-09-10T03:29:16.296Z,15.73
2018-09-10T03:31:45.793Z,15.76
2018-09-10T03:34:15.338Z,15.76
2018-09-10T03:36:44.827Z,15.78
2018-09-10T03:41:42.905Z,15.77
2018-09-10T03:44:12.396Z,15.75
2018-09-10T03:46:41.832Z,15.75
2018-09-10T03:49:11.290Z,15.75
2018-09-10T03:51:40.820Z,15.74
2018-09-10T03:54:10.311Z,15.73
2018-09-10T03:56:39.778Z,15.78
2018-09-10T03:59:09.465Z,15.74
2018-09-10T04:01:38.973Z,15.73
2018-09-10T04:04:08.472Z,15.71
2018-09-10T04:06:37.971Z,15.71
2018-09-10T04:09:08.577Z,15.72
2018-09-10T04:11:38.165Z,15.68
2018-09-10T04:14:07.638Z,15.62
2018-09-10T04:16:37.252Z,15.55
2018-09-10T04:19:06.882Z,15.59
2018-09-10T04:21:36.486Z,15.57
2018-09-10T04:24:06.040Z,15.59
2018-09-10T04:26:35.650Z,15.61
2018-09-10T04:29:05.485Z,15.58
2018-09-10T04:31:35.009Z,15.63
2018-09-10T04:34:04.716Z,15.63
2018-09-10T04:36:34.243Z,15.65
2018-09-10T04:39:05.068Z,15.67
2018-09-10T04:41:41.742Z,15.66
2018-09-10T04:44:11.349Z,15.67
2018-09-10T04:46:41.070Z,15.67
2018-09-10T04:49:10.715Z,15.71
2018-09-10T04:51:40.282Z,15.73
2018-09-10T04:54:09.902Z,15.75
2018-09-10T04:56:39.512Z,15.77
2018-09-10T04:59:08.986Z,15.78
2018-09-10T05:01:38.487Z,15.78
2018-09-10T05:04:08.122Z,15.80
2018-09-10T05:06:37.624Z,15.82
2018-09-10T05:09:08.900Z,15.82
2018-09-10T05:11:38.494Z,15.79
2018-09-10T05:14:08.182Z,15.82
2018-09-10T05:16:37.762Z,15.88
2018-09-10T05:19:07.303Z,15.95
2018-09-10T05:21:36.856Z,15.98
2018-09-10T05:24:06.371Z,16.04
2018-09-10T05:26:35.865Z,16.10
2018-09-10T05:29:05.444Z,16.14
2018-09-10T05:31:35.013Z,16.21
2018-09-10T05:34:04.646Z,16.24
2018-09-10T05:36:34.122Z,16.29
2018-09-10T05:39:04.393Z,16.35
2018-09-10T05:41:33.846Z,16.38
2018-09-10T05:44:03.530Z,16.40
2018-09-10T05:46:33.052Z,16.40
2018-09-10T05:49:02.644Z,16.45
2018-09-10T05:51:32.106Z,16.51
2018-09-10T05:54:02.251Z,16.51
2018-09-10T05:56:31.950Z,16.56
2018-09-10T05:59:01.420Z,16.63
2018-09-10T06:01:31.056Z,16.70
2018-09-10T06:04:00.522Z,16.74
2018-09-10T06:06:30.114Z,16.81
2018-09-10T06:08:59.559Z,16.88
2018-09-10T06:11:29.067Z,17.00
2018-09-10T06:13:58.542Z,17.09
2018-09-10T06:16:28.075Z,17.14
2018-09-10T06:18:57.640Z,17.26
2018-09-10T06:21:27.236Z,17.31
2018-09-10T06:23:56.957Z,17.33
2018-09-10T06:26:26.458Z,17.33
2018-09-10T06:28:56.393Z,17.31
2018-09-10T06:31:26.340Z,17.30
2018-09-10T06:33:56.787Z,17.29
2018-09-10T06:36:26.993Z,17.29
2018-09-10T06:38:56.629Z,17.29
2018-09-10T06:41:26.063Z,17.21
2018-09-10T06:43:55.642Z,17.17
2018-09-10T06:46:25.234Z,17.16
2018-09-10T06:48:54.745Z,17.14
2018-09-10T06:51:24.250Z,17.12
2018-09-10T06:53:53.781Z,17.12
2018-09-10T06:56:23.722Z,17.11
2018-09-10T06:58:53.322Z,17.09
2018-09-10T07:01:22.819Z,17.05
2018-09-10T07:03:52.285Z,17.15
2018-09-10T07:06:21.816Z,17.16
2018-09-10T07:08:51.401Z,17.09
2018-09-10T07:11:20.951Z,17.09
2018-09-10T07:13:50.595Z,17.13
2018-09-10T07:16:20.157Z,17.11
2018-09-10T07:18:49.756Z,17.16
2018-09-10T07:21:19.247Z,17.21
2018-09-10T07:23:48.800Z,17.26
2018-09-10T07:26:18.309Z,17.30
2018-09-10T07:28:47.721Z,17.47
2018-09-10T07:31:17.400Z,17.45
2018-09-10T07:33:47.208Z,17.49
2018-09-10T07:36:16.698Z,17.60
2018-09-10T07:38:46.321Z,17.59
2018-09-10T07:41:15.823Z,17.69
2018-09-10T07:43:45.406Z,17.87
2018-09-10T07:46:14.980Z,17.80
2018-09-10T07:48:44.432Z,17.90
2018-09-10T07:51:13.907Z,17.91
2018-09-10T07:53:43.654Z,17.90
2018-09-10T07:56:13.125Z,17.85
2018-09-10T07:58:42.796Z,17.81
2018-09-10T08:01:12.372Z,17.91
2018-09-10T08:03:42.053Z,18.04
2018-09-10T08:06:11.593Z,18.08
2018-09-10T08:08:41.184Z,18.20
2018-09-10T08:11:10.693Z,18.16
2018-09-10T08:13:40.205Z,18.29
2018-09-10T08:16:09.766Z,18.10
2018-09-10T08:18:39.309Z,18.15
2018-09-10T08:21:09.056Z,18.24
2018-09-10T08:23:38.584Z,18.26
2018-09-10T08:26:08.131Z,18.39
2018-09-10T08:28:37.716Z,18.50
2018-09-10T08:31:07.162Z,18.51
2018-09-10T08:33:36.689Z,18.56
2018-09-10T08:36:06.458Z,18.52
2018-09-10T08:38:36.014Z,18.73
2018-09-10T08:41:05.585Z,18.79
2018-09-10T08:43:35.003Z,18.87
2018-09-10T08:46:04.642Z,19.05
2018-09-10T08:48:34.096Z,19.19
2018-09-10T08:51:03.526Z,19.09
2018-09-10T08:53:33.090Z,19.01
2018-09-10T08:56:03.240Z,18.95
2018-09-10T08:58:32.503Z,18.95
2018-09-10T09:01:02.446Z,19.09
2018-09-10T09:03:32.064Z,19.18
2018-09-10T09:06:01.646Z,19.32
2018-09-10T09:08:31.207Z,19.38
2018-09-10T09:11:00.737Z,19.34
2018-09-10T09:13:30.197Z,19.44
2018-09-10T09:15:59.721Z,19.37
2018-09-10T09:18:29.245Z,19.42
2018-09-10T09:20:58.690Z,19.32
2018-09-10T09:23:28.409Z,19.33
2018-09-10T09:25:57.851Z,19.32
2018-09-10T09:28:27.341Z,19.26
2018-09-10T09:30:57.110Z,19.44
2018-09-10T09:33:26.765Z,19.51
2018-09-10T09:36:01.454Z,19.54
2018-09-10T09:38:36.215Z,19.72
2018-09-10T09:41:11.013Z,19.88
2018-09-10T09:43:45.662Z,19.83
2018-09-10T09:46:17.496Z,19.84
2018-09-10T09:48:46.952Z,19.85
2018-09-10T09:51:16.498Z,20.00
2018-09-10T09:53:45.962Z,20.00
2018-09-10T09:56:15.663Z,20.10
2018-09-10T09:58:45.247Z,20.06
2018-09-10T10:01:20.150Z,20.14
2018-09-10T10:03:55.312Z,20.38
2018-09-10T10:06:25.884Z,20.40
2018-09-10T10:08:55.384Z,20.33
2018-09-10T10:11:25.043Z,20.34
2018-09-10T10:13:54.569Z,20.39
2018-09-10T10:16:24.277Z,20.52
2018-09-10T10:18:53.820Z,20.72
2018-09-10T10:21:23.420Z,20.68
2018-09-10T10:23:53.074Z,20.78
2018-09-10T10:26:22.661Z,20.69
2018-09-10T10:28:52.205Z,20.70
2018-09-10T10:31:21.897Z,20.73
2018-09-10T10:33:51.845Z,20.79
2018-09-10T10:36:21.592Z,20.86
2018-09-10T10:38:51.284Z,20.81
2018-09-10T10:41:21.325Z,20.96
2018-09-10T10:43:50.852Z,21.15
2018-09-10T10:46:20.345Z,21.21
2018-09-10T10:48:49.866Z,21.30
2018-09-10T10:51:19.338Z,21.52
2018-09-10T10:53:48.925Z,21.38
2018-09-10T10:56:18.394Z,21.37
2018-09-10T10:58:47.953Z,21.58
2018-09-10T11:01:17.646Z,21.63
2018-09-10T11:03:47.199Z,21.54
2018-09-10T11:06:16.877Z,21.55
2018-09-10T11:08:46.445Z,21.64
2018-09-10T11:11:16.046Z,21.57
2018-09-10T11:13:45.662Z,21.68
2018-09-10T11:16:15.151Z,21.72
2018-09-10T11:18:44.814Z,21.95
2018-09-10T11:21:14.356Z,21.74
2018-09-10T11:23:43.929Z,21.83
2018-09-10T11:26:13.448Z,21.84
2018-09-10T11:28:43.114Z,21.85
2018-09-10T11:31:12.587Z,21.81
2018-09-10T11:33:42.083Z,21.88
2018-09-10T11:36:11.760Z,22.09
2018-09-10T11:38:41.242Z,22.22
2018-09-10T11:41:10.844Z,22.46
2018-09-10T11:43:40.573Z,22.53
2018-09-10T11:46:10.031Z,22.46
2018-09-10T11:48:39.473Z,22.79
2018-09-10T11:51:09.207Z,22.86
2018-09-10T11:53:38.674Z,22.78
2018-09-10T11:56:08.815Z,22.92
2018-09-10T11:58:38.401Z,23.08
2018-09-10T12:01:08.052Z,23.09
2018-09-10T12:03:37.605Z,22.86
2018-09-10T12:06:07.448Z,22.69
2018-09-10T12:08:37.173Z,22.29
2018-09-10T12:11:07.172Z,22.41
2018-09-10T12:13:36.918Z,22.61
2018-09-10T12:16:06.809Z,22.53
2018-09-10T12:18:36.412Z,22.81
2018-09-10T12:21:06.210Z,22.91
2018-09-10T12:23:36.254Z,23.07
2018-09-10T12:26:05.728Z,22.87
2018-09-10T12:28:35.296Z,22.61
2018-09-10T12:31:04.903Z,22.78
2018-09-10T12:33:34.416Z,22.98
2018-09-10T12:36:06.097Z,22.58
2018-09-10T12:38:35.605Z,22.50
2018-09-10T12:41:05.225Z,22.56
2018-09-10T12:43:34.884Z,22.49
2018-09-10T12:46:04.504Z,22.33
2018-09-10T12:48:34.018Z,22.24
2018-09-10T12:51:04.093Z,22.10
2018-09-10T12:53:33.591Z,22.47
2018-09-10T12:56:03.259Z,22.65
2018-09-10T12:58:32.745Z,22.47
2018-09-10T13:01:02.281Z,22.50
2018-09-10T13:03:31.840Z,22.12
2018-09-10T13:06:01.390Z,21.94
2018-09-10T13:08:30.917Z,21.66
2018-09-10T13:11:00.441Z,21.62
2018-09-10T13:13:29.967Z,21.56
2018-09-10T13:16:00.046Z,21.60
2018-09-10T13:18:29.552Z,21.74
2018-09-10T13:20:59.067Z,21.88
2018-09-10T13:23:28.666Z,21.88
2018-09-10T13:25:58.206Z,21.87
2018-09-10T13:28:27.842Z,21.83
2018-09-10T13:30:57.420Z,21.60
2018-09-10T13:33:27.144Z,21.56
2018-09-10T13:35:56.655Z,21.64
2018-09-10T13:38:26.138Z,21.69
2018-09-10T13:40:55.681Z,21.97
2018-09-10T13:43:25.206Z,22.01
2018-09-10T13:45:54.784Z,21.72
2018-09-10T13:48:24.398Z,22.13
2018-09-10T13:50:53.835Z,22.15
2018-09-10T13:53:23.304Z,21.64
2018-09-10T13:55:52.795Z,21.67
2018-09-10T13:58:22.330Z,21.47
2018-09-10T14:00:51.903Z,21.35
2018-09-10T14:03:21.382Z,21.18
2018-09-10T14:05:50.911Z,20.94
2018-09-10T14:08:20.443Z,21.02
2018-09-10T14:10:50.093Z,21.00
2018-09-10T14:13:19.616Z,20.96
2018-09-10T14:15:49.285Z,20.97
2018-09-10T14:18:18.871Z,20.88
2018-09-10T14:20:48.200Z,20.78
2018-09-10T14:23:17.868Z,20.60
2018-09-10T14:25:47.577Z,20.52
2018-09-10T14:28:17.171Z,20.49
2018-09-10T14:30:46.767Z,20.38
2018-09-10T14:33:16.272Z,20.44
2018-09-10T14:35:45.730Z,20.39
2018-09-10T14:38:15.319Z,20.34
2018-09-10T14:40:44.853Z,20.38
2018-09-10T14:43:14.991Z,20.08
2018-09-10T14:45:44.757Z,19.97
2018-09-10T14:48:14.398Z,20.01
2018-09-10T14:50:43.849Z,20.00
2018-09-10T14:53:13.311Z,19.95
2018-09-10T14:55:42.869Z,19.99
2018-09-10T14:58:12.447Z,19.87
2018-09-10T15:00:42.191Z,19.99
2018-09-10T15:03:11.687Z,19.88
2018-09-10T15:05:41.149Z,19.90
2018-09-10T15:08:10.835Z,19.96
2018-09-10T15:10:40.439Z,19.85
2018-09-10T15:13:09.925Z,19.83
2018-09-10T15:15:39.436Z,19.93
2018-09-10T15:18:08.951Z,19.94
2018-09-10T15:20:38.387Z,19.99
2018-09-10T15:23:07.880Z,19.95
2018-09-10T15:25:37.382Z,20.01
2018-09-10T15:28:07.009Z,19.95
2018-09-10T15:30:36.738Z,19.92
2018-09-10T15:33:06.577Z,19.88
2018-09-10T15:35:36.436Z,19.89
2018-09-10T15:38:06.044Z,19.88
2018-09-10T15:40:35.696Z,19.73
2018-09-10T15:43:05.481Z,19.62
2018-09-10T15:45:34.941Z,19.59
2018-09-10T15:48:04.462Z,19.47
2018-09-10T15:50:33.992Z,19.42
2018-09-10T15:53:03.564Z,19.35
2018-09-10T15:55:33.136Z,19.42
2018-09-10T15:58:02.773Z,19.37
2018-09-10T16:00:32.562Z,19.39
2018-09-10T16:03:02.936Z,19.37
2018-09-10T16:05:32.736Z,19.25
2018-09-10T16:08:04.022Z,19.30
2018-09-10T16:10:34.389Z,19.31
2018-09-10T16:13:04.343Z,19.23
2018-09-10T16:15:35.607Z,19.25
2018-09-10T16:18:05.353Z,19.28
2018-09-10T16:20:35.655Z,19.22
2018-09-10T16:23:06.428Z,19.18
2018-09-10T16:25:36.778Z,19.12
2018-09-10T16:28:08.936Z,19.01
2018-09-10T16:30:39.145Z,19.04
2018-09-10T16:33:09.483Z,19.01
2018-09-10T16:35:40.998Z,18.92
2018-09-10T16:38:10.507Z,18.85
2018-09-10T16:40:42.045Z,18.88
2018-09-10T16:43:11.642Z,18.84
2018-09-10T16:45:41.417Z,18.77
2018-09-10T16:48:11.880Z,18.76
2018-09-10T16:50:42.367Z,18.76
2018-09-10T16:53:12.255Z,18.76
2018-09-10T16:55:42.006Z,18.72
2018-09-10T16:58:53.849Z,18.66
2018-09-10T17:01:24.101Z,18.61
2018-09-10T17:03:53.760Z,18.67
2018-09-10T17:06:26.649Z,18.69
2018-09-10T17:08:57.916Z,18.64
2018-09-10T17:11:27.571Z,18.62
2018-09-10T17:13:57.942Z,18.62
2018-09-10T17:16:28.455Z,18.64
2018-09-10T17:18:59.556Z,18.63
2018-09-10T17:21:29.798Z,18.57
2018-09-10T17:24:00.485Z,18.55
2018-09-10T17:26:31.656Z,18.53
2018-09-10T17:29:02.942Z,18.48
2018-09-10T17:31:32.444Z,18.51
2018-09-10T17:34:03.804Z,18.43
2018-09-10T17:36:34.312Z,18.37
2018-09-10T17:39:04.111Z,18.34
2018-09-10T17:41:35.734Z,18.35
2018-09-10T17:44:05.965Z,18.32
2018-09-10T17:46:35.892Z,18.24
2018-09-10T17:49:06.737Z,18.18
2018-09-10T17:51:36.381Z,18.07
2018-09-10T17:54:06.300Z,18.07
2018-09-10T17:56:36.436Z,18.03
2018-09-10T17:59:07.093Z,17.97
2018-09-10T18:01:37.701Z,17.99
2018-09-10T18:04:07.523Z,17.96
2018-09-10T18:06:37.551Z,17.98
2018-09-10T18:09:12.305Z,17.94
2018-09-10T18:12:15.514Z,17.97
2018-09-10T18:14:45.275Z,17.93
2018-09-10T18:17:16.015Z,17.88
2018-09-10T18:19:46.468Z,17.86
2018-09-10T18:22:17.113Z,17.85
2018-09-10T18:24:46.825Z,17.83
2018-09-10T18:27:17.726Z,17.87
2018-09-10T18:29:48.881Z,17.78
2018-09-10T18:32:19.385Z,17.76
2018-09-10T18:34:48.970Z,17.75
2018-09-10T18:37:23.744Z,17.73
2018-09-10T18:39:55.557Z,17.74
2018-09-10T18:42:28.673Z,17.65
2018-09-10T18:44:59.428Z,17.62
2018-09-10T18:47:29.208Z,17.50
2018-09-10T18:50:00.089Z,17.47
2018-09-10T18:52:30.290Z,17.49
2018-09-10T18:55:00.836Z,17.49
2018-09-10T18:57:30.513Z,17.47
2018-09-10T19:00:01.488Z,17.47
2018-09-10T19:02:31.086Z,17.41
2018-09-10T19:05:05.374Z,17.36
2018-09-10T19:07:36.382Z,17.39
2018-09-10T19:10:07.288Z,17.38
2018-09-10T19:12:36.781Z,17.33
2018-09-10T19:15:07.929Z,17.31
2018-09-10T19:17:37.545Z,17.29
2018-09-10T19:20:07.154Z,17.30
2018-09-10T19:22:39.187Z,17.24
2018-09-10T19:25:09.586Z,17.22
2018-09-10T19:27:39.078Z,17.18
2018-09-10T19:30:10.488Z,17.19
2018-09-10T19:32:41.477Z,17.16
2018-09-10T19:35:12.028Z,17.10
2018-09-10T19:37:41.507Z,17.07
2018-09-10T19:40:12.124Z,17.07
2018-09-10T19:42:41.743Z,17.08
2018-09-10T19:45:11.314Z,17.02
2018-09-10T19:47:40.872Z,16.96
2018-09-10T19:50:10.481Z,16.90
2018-09-10T19:52:42.201Z,16.86
2018-09-10T19:55:11.671Z,16.78
2018-09-10T19:57:41.401Z,16.70
2018-09-10T20:00:10.903Z,16.63
2018-09-10T20:02:40.394Z,16.58
2018-09-10T20:05:10.810Z,16.47
2018-09-10T20:07:40.378Z,16.28
2018-09-10T20:10:09.916Z,16.10
2018-09-10T20:12:40.070Z,16.02
2018-09-10T20:15:10.068Z,15.95
2018-09-10T20:17:39.552Z,15.84
2018-09-10T20:20:10.223Z,15.67
2018-09-10T20:22:40.395Z,15.57
2018-09-10T20:25:10.851Z,15.50
2018-09-10T20:27:41.480Z,15.54
2018-09-10T20:30:11.993Z,15.59
2018-09-10T20:32:42.540Z,15.54
2018-09-10T20:35:12.179Z,15.52
2018-09-10T20:37:41.697Z,15.52
2018-09-10T20:43:09.553Z,15.55
2018-09-10T20:45:40.185Z,15.59
2018-09-10T20:48:09.691Z,15.66
2018-09-10T20:50:39.603Z,15.69
2018-09-10T20:53:09.486Z,15.71
2018-09-10T20:55:39.832Z,15.71
2018-09-10T20:58:09.976Z,15.72
2018-09-10T21:00:40.158Z,15.60
2018-09-10T21:03:09.698Z,15.56
2018-09-10T21:05:39.211Z,15.43
2018-09-10T21:08:11.164Z,15.43
2018-09-10T21:10:41.194Z,15.47
2018-09-10T21:13:10.774Z,15.52
2018-09-10T21:15:40.326Z,15.56
2018-09-10T21:18:09.920Z,15.69
2018-09-10T21:20:39.456Z,15.80
2018-09-10T21:23:09.966Z,15.85
2018-09-10T21:25:40.092Z,15.95
2018-09-10T21:28:10.523Z,15.96
2018-09-10T21:30:41.477Z,16.03
2018-09-10T21:33:12.202Z,16.09
2018-09-10T21:35:41.636Z,16.06
2018-09-10T21:38:11.160Z,16.01
2018-09-10T21:40:41.605Z,16.05
2018-09-10T21:43:11.880Z,16.05
2018-09-10T21:45:41.401Z,16.08
2018-09-10T21:48:11.812Z,16.09
2018-09-10T21:50:42.112Z,16.10
2018-09-10T21:53:11.629Z,16.12
2018-09-10T21:55:41.234Z,16.17
2018-09-10T21:58:11.196Z,16.19
2018-09-10T22:00:46.527Z,16.24
2018-09-10T22:03:16.043Z,16.17
2018-09-10T22:05:46.107Z,16.17
2018-09-10T22:08:16.047Z,16.16
2018-09-10T22:10:47.315Z,16.15
2018-09-10T22:13:16.847Z,16.15
2018-09-10T22:15:46.379Z,16.20
2018-09-10T22:18:33.707Z,16.18
2018-09-10T22:21:06.304Z,16.17
2018-09-10T22:23:35.851Z,16.16
2018-09-10T22:26:05.474Z,16.19
2018-09-10T22:28:35.434Z,16.14
2018-09-10T22:31:06.055Z,16.16
2018-09-10T22:33:35.566Z,16.18
2018-09-10T22:36:06.071Z,16.18
2018-09-10T22:38:35.719Z,16.15
2018-09-10T22:41:06.315Z,16.15
2018-09-10T22:43:36.150Z,16.14
2018-09-10T22:46:08.767Z,16.16
2018-09-10T22:48:39.266Z,16.17
2018-09-10T22:51:09.291Z,16.17
2018-09-10T22:53:38.795Z,16.15
2018-09-10T22:56:09.704Z,16.15
2018-09-10T22:58:39.339Z,16.12
2018-09-10T23:01:08.901Z,16.11
2018-09-10T23:03:39.323Z,16.13
2018-09-10T23:06:09.169Z,16.12
2018-09-10T23:08:38.671Z,16.08
2018-09-10T23:11:09.063Z,16.11
2018-09-10T23:13:38.982Z,16.10
2018-09-10T23:16:09.631Z,16.13
2018-09-10T23:18:40.295Z,16.11
2018-09-10T23:21:09.783Z,16.07
2018-09-10T23:23:39.642Z,16.04
2018-09-10T23:26:11.707Z,16.10
2018-09-10T23:28:41.349Z,16.09
2018-09-10T23:34:08.633Z,16.11
2018-09-10T23:36:40.577Z,16.13
2018-09-10T23:39:11.709Z,16.15
2018-09-10T23:41:41.233Z,16.14
2018-09-10T23:44:11.161Z,16.13
2018-09-10T23:46:40.740Z,16.15
2018-09-10T23:49:12.194Z,16.11
2018-09-10T23:51:42.592Z,16.10
2018-09-10T23:54:12.098Z,16.10
2018-09-10T23:56:41.621Z,16.07
2018-09-10T23:59:11.071Z,16.03
